sensor_id;sensor_type;location;lat;lon;timestamp;P1;durP1;ratioP1;P2;durP2;ratioP2
63807;SDS011;49961;43.970;22.868;2022-10-26T00:00:07;5.17;;;3.87;;
63807;SDS011;49961;43.970;22.868;2022-10-26T00:01:12;5.33;;;4.17;;
63807;SDS011;49961;43.970;22.868;2022-10-26T00:02:14;7.50;;;3.93;;
63807;SDS011;49961;43.970;22.868;2022-10-26T00:03:14;5.67;;;4.13;;
63807;SDS011;49961;43.970;22.868;2022-10-26T00:04:15;5.80;;;3.70;;
63807;SDS011;49961;43.970;22.868;2022-10-26T00:05:16;7.33;;;4.00;;
63807;SDS011;49961;43.970;22.868;2022-10-26T00:06:17;6.73;;;3.77;;
63807;SDS011;49961;43.970;22.868;2022-10-26T00:07:19;4.67;;;3.40;;
63807;SDS011;49961;43.970;22.868;2022-10-26T00:08:19;5.40;;;3.70;;
63807;SDS011;49961;43.970;22.868;2022-10-26T00:09:20;7.47;;;3.77;;
63807;SDS011;49961;43.970;22.868;2022-10-26T00:10:20;5.83;;;3.60;;
63807;SDS011;49961;43.970;22.868;2022-10-26T00:11:20;5.23;;;3.63;;
63807;SDS011;49961;43.970;22.868;2022-10-26T00:12:21;8.57;;;3.77;;
63807;SDS011;49961;43.970;22.868;2022-10-26T00:13:22;5.30;;;3.10;;
63807;SDS011;49961;43.970;22.868;2022-10-26T00:14:22;6.40;;;3.50;;
63807;SDS011;49961;43.970;22.868;2022-10-26T00:15:23;7.67;;;3.37;;
63807;SDS011;49961;43.970;22.868;2022-10-26T00:16:25;4.50;;;3.10;;
63807;SDS011;49961;43.970;22.868;2022-10-26T00:17:26;4.73;;;3.17;;
63807;SDS011;49961;43.970;22.868;2022-10-26T00:18:27;5.80;;;3.40;;
63807;SDS011;49961;43.970;22.868;2022-10-26T00:19:27;6.47;;;3.20;;
63807;SDS011;49961;43.970;22.868;2022-10-26T00:20:28;4.80;;;2.80;;
63807;SDS011;49961;43.970;22.868;2022-10-26T00:21:28;5.67;;;3.00;;
63807;SDS011;49961;43.970;22.868;2022-10-26T00:22:29;4.03;;;2.80;;
63807;SDS011;49961;43.970;22.868;2022-10-26T00:23:29;4.03;;;3.20;;
63807;SDS011;49961;43.970;22.868;2022-10-26T00:24:30;5.50;;;3.20;;
63807;SDS011;49961;43.970;22.868;2022-10-26T00:25:31;5.37;;;3.63;;
63807;SDS011;49961;43.970;22.868;2022-10-26T00:26:31;5.40;;;3.20;;
63807;SDS011;49961;43.970;22.868;2022-10-26T00:27:32;5.10;;;3.00;;
63807;SDS011;49961;43.970;22.868;2022-10-26T00:28:36;5.57;;;2.90;;
63807;SDS011;49961;43.970;22.868;2022-10-26T00:29:36;4.37;;;2.97;;
63807;SDS011;49961;43.970;22.868;2022-10-26T00:30:39;4.20;;;3.07;;
63807;SDS011;49961;43.970;22.868;2022-10-26T00:31:40;5.33;;;3.10;;
63807;SDS011;49961;43.970;22.868;2022-10-26T00:32:40;3.80;;;2.77;;
63807;SDS011;49961;43.970;22.868;2022-10-26T00:33:41;4.70;;;3.03;;
63807;SDS011;49961;43.970;22.868;2022-10-26T00:34:41;6.40;;;2.97;;
63807;SDS011;49961;43.970;22.868;2022-10-26T00:35:42;4.13;;;2.80;;
63807;SDS011;49961;43.970;22.868;2022-10-26T00:36:43;4.33;;;2.87;;
63807;SDS011;49961;43.970;22.868;2022-10-26T00:37:43;5.50;;;3.20;;
63807;SDS011;49961;43.970;22.868;2022-10-26T00:38:50;5.23;;;3.23;;
63807;SDS011;49961;43.970;22.868;2022-10-26T00:39:52;5.33;;;2.87;;
63807;SDS011;49961;43.970;22.868;2022-10-26T00:40:53;5.60;;;3.10;;
63807;SDS011;49961;43.970;22.868;2022-10-26T00:41:53;6.03;;;3.33;;
63807;SDS011;49961;43.970;22.868;2022-10-26T00:42:53;5.23;;;2.97;;
63807;SDS011;49961;43.970;22.868;2022-10-26T00:43:54;5.37;;;3.27;;
63807;SDS011;49961;43.970;22.868;2022-10-26T00:44:56;5.37;;;2.90;;
63807;SDS011;49961;43.970;22.868;2022-10-26T00:46:00;4.13;;;2.73;;
63807;SDS011;49961;43.970;22.868;2022-10-26T00:47:03;5.70;;;2.90;;
63807;SDS011;49961;43.970;22.868;2022-10-26T00:48:05;4.90;;;2.60;;
63807;SDS011;49961;43.970;22.868;2022-10-26T00:49:14;5.10;;;3.10;;
63807;SDS011;49961;43.970;22.868;2022-10-26T00:50:26;4.63;;;2.93;;
63807;SDS011;49961;43.970;22.868;2022-10-26T00:51:36;3.93;;;2.93;;
63807;SDS011;49961;43.970;22.868;2022-10-26T00:52:41;4.27;;;2.80;;
63807;SDS011;49961;43.970;22.868;2022-10-26T00:53:41;4.10;;;3.00;;
63807;SDS011;49961;43.970;22.868;2022-10-26T00:54:43;4.50;;;3.00;;
63807;SDS011;49961;43.970;22.868;2022-10-26T00:55:45;4.60;;;3.30;;
63807;SDS011;49961;43.970;22.868;2022-10-26T00:56:49;4.60;;;3.13;;
63807;SDS011;49961;43.970;22.868;2022-10-26T00:57:53;5.03;;;3.17;;
63807;SDS011;49961;43.970;22.868;2022-10-26T00:58:54;4.70;;;3.10;;
63807;SDS011;49961;43.970;22.868;2022-10-26T00:59:59;5.07;;;3.20;;
63807;SDS011;49961;43.970;22.868;2022-10-26T01:01:00;4.83;;;3.40;;
63807;SDS011;49961;43.970;22.868;2022-10-26T01:02:00;7.23;;;3.67;;
63807;SDS011;49961;43.970;22.868;2022-10-26T01:03:03;3.90;;;3.00;;
63807;SDS011;49961;43.970;22.868;2022-10-26T01:04:05;5.57;;;2.93;;
63807;SDS011;49961;43.970;22.868;2022-10-26T01:05:06;6.77;;;3.30;;
63807;SDS011;49961;43.970;22.868;2022-10-26T01:06:07;4.13;;;3.40;;
63807;SDS011;49961;43.970;22.868;2022-10-26T01:07:08;10.37;;;3.50;;
63807;SDS011;49961;43.970;22.868;2022-10-26T01:08:09;6.37;;;3.27;;
63807;SDS011;49961;43.970;22.868;2022-10-26T01:09:10;7.27;;;3.63;;
63807;SDS011;49961;43.970;22.868;2022-10-26T01:10:12;4.30;;;3.47;;
63807;SDS011;49961;43.970;22.868;2022-10-26T01:11:13;6.77;;;3.80;;
63807;SDS011;49961;43.970;22.868;2022-10-26T01:12:13;6.63;;;3.50;;
63807;SDS011;49961;43.970;22.868;2022-10-26T01:13:14;5.87;;;3.77;;
63807;SDS011;49961;43.970;22.868;2022-10-26T01:14:16;6.23;;;3.60;;
63807;SDS011;49961;43.970;22.868;2022-10-26T01:15:20;5.30;;;3.43;;
63807;SDS011;49961;43.970;22.868;2022-10-26T01:19:00;5.63;;;3.67;;
63807;SDS011;49961;43.970;22.868;2022-10-26T01:22:46;4.93;;;3.27;;
63807;SDS011;49961;43.970;22.868;2022-10-26T01:28:03;5.77;;;3.90;;
63807;SDS011;49961;43.970;22.868;2022-10-26T01:29:33;7.83;;;3.70;;
63807;SDS011;49961;43.970;22.868;2022-10-26T01:30:55;5.83;;;3.50;;
63807;SDS011;49961;43.970;22.868;2022-10-26T01:32:03;6.53;;;3.93;;
63807;SDS011;49961;43.970;22.868;2022-10-26T01:35:45;6.30;;;4.03;;
63807;SDS011;49961;43.970;22.868;2022-10-26T01:37:00;4.67;;;3.50;;
63807;SDS011;49961;43.970;22.868;2022-10-26T01:38:21;10.23;;;3.60;;
63807;SDS011;49961;43.970;22.868;2022-10-26T01:40:44;4.70;;;4.10;;
63807;SDS011;49961;43.970;22.868;2022-10-26T01:41:50;7.30;;;3.60;;
63807;SDS011;49961;43.970;22.868;2022-10-26T01:42:58;6.03;;;3.80;;
63807;SDS011;49961;43.970;22.868;2022-10-26T01:44:13;7.67;;;3.87;;
63807;SDS011;49961;43.970;22.868;2022-10-26T01:45:20;5.60;;;3.80;;
63807;SDS011;49961;43.970;22.868;2022-10-26T01:46:22;6.60;;;4.07;;
63807;SDS011;49961;43.970;22.868;2022-10-26T01:47:25;6.00;;;3.90;;
63807;SDS011;49961;43.970;22.868;2022-10-26T01:48:27;6.50;;;4.00;;
63807;SDS011;49961;43.970;22.868;2022-10-26T01:49:30;6.90;;;4.40;;
63807;SDS011;49961;43.970;22.868;2022-10-26T01:50:34;5.53;;;3.90;;
63807;SDS011;49961;43.970;22.868;2022-10-26T01:51:37;7.23;;;4.30;;
63807;SDS011;49961;43.970;22.868;2022-10-26T01:52:39;6.20;;;3.90;;
63807;SDS011;49961;43.970;22.868;2022-10-26T01:53:41;5.67;;;3.70;;
63807;SDS011;49961;43.970;22.868;2022-10-26T01:54:45;4.20;;;3.77;;
63807;SDS011;49961;43.970;22.868;2022-10-26T01:56:54;5.07;;;3.77;;
63807;SDS011;49961;43.970;22.868;2022-10-26T01:58:00;6.90;;;4.13;;
63807;SDS011;49961;43.970;22.868;2022-10-26T02:00:31;5.77;;;4.10;;
63807;SDS011;49961;43.970;22.868;2022-10-26T02:06:22;9.53;;;4.50;;
63807;SDS011;49961;43.970;22.868;2022-10-26T02:07:33;4.90;;;4.27;;
63807;SDS011;49961;43.970;22.868;2022-10-26T02:08:54;7.03;;;4.00;;
63807;SDS011;49961;43.970;22.868;2022-10-26T02:12:38;5.97;;;4.23;;
63807;SDS011;49961;43.970;22.868;2022-10-26T02:13:46;7.00;;;4.70;;
63807;SDS011;49961;43.970;22.868;2022-10-26T02:17:58;6.17;;;4.30;;
63807;SDS011;49961;43.970;22.868;2022-10-26T02:19:24;5.57;;;3.87;;
63807;SDS011;49961;43.970;22.868;2022-10-26T02:20:35;4.80;;;3.37;;
63807;SDS011;49961;43.970;22.868;2022-10-26T02:21:44;6.10;;;3.67;;
63807;SDS011;49961;43.970;22.868;2022-10-26T02:22:51;4.93;;;3.40;;
63807;SDS011;49961;43.970;22.868;2022-10-26T02:23:55;5.37;;;3.63;;
63807;SDS011;49961;43.970;22.868;2022-10-26T02:24:58;5.50;;;3.20;;
63807;SDS011;49961;43.970;22.868;2022-10-26T02:26:04;4.60;;;3.30;;
63807;SDS011;49961;43.970;22.868;2022-10-26T02:27:09;7.70;;;3.87;;
63807;SDS011;49961;43.970;22.868;2022-10-26T02:28:18;5.93;;;3.50;;
63807;SDS011;49961;43.970;22.868;2022-10-26T02:29:24;7.83;;;3.30;;
63807;SDS011;49961;43.970;22.868;2022-10-26T02:30:26;5.40;;;3.20;;
63807;SDS011;49961;43.970;22.868;2022-10-26T02:31:28;3.90;;;3.13;;
63807;SDS011;49961;43.970;22.868;2022-10-26T02:32:33;7.20;;;3.33;;
63807;SDS011;49961;43.970;22.868;2022-10-26T02:33:37;6.63;;;3.70;;
63807;SDS011;49961;43.970;22.868;2022-10-26T02:34:40;5.03;;;3.27;;
63807;SDS011;49961;43.970;22.868;2022-10-26T02:35:46;4.40;;;2.90;;
63807;SDS011;49961;43.970;22.868;2022-10-26T02:36:49;5.17;;;3.10;;
63807;SDS011;49961;43.970;22.868;2022-10-26T02:37:51;4.40;;;3.17;;
63807;SDS011;49961;43.970;22.868;2022-10-26T02:38:54;4.43;;;3.07;;
63807;SDS011;49961;43.970;22.868;2022-10-26T02:39:56;6.57;;;3.53;;
63807;SDS011;49961;43.970;22.868;2022-10-26T02:41:00;4.03;;;3.03;;
63807;SDS011;49961;43.970;22.868;2022-10-26T02:42:03;5.93;;;3.20;;
63807;SDS011;49961;43.970;22.868;2022-10-26T02:43:09;5.80;;;2.90;;
63807;SDS011;49961;43.970;22.868;2022-10-26T02:45:25;6.87;;;3.20;;
63807;SDS011;49961;43.970;22.868;2022-10-26T02:46:30;5.37;;;3.50;;
63807;SDS011;49961;43.970;22.868;2022-10-26T02:47:31;7.27;;;3.20;;
63807;SDS011;49961;43.970;22.868;2022-10-26T02:48:32;4.53;;;3.63;;
63807;SDS011;49961;43.970;22.868;2022-10-26T02:49:33;6.07;;;3.43;;
63807;SDS011;49961;43.970;22.868;2022-10-26T02:50:37;4.97;;;3.73;;
63807;SDS011;49961;43.970;22.868;2022-10-26T02:51:51;4.80;;;3.70;;
63807;SDS011;49961;43.970;22.868;2022-10-26T02:53:03;4.43;;;3.60;;
63807;SDS011;49961;43.970;22.868;2022-10-26T02:54:15;5.87;;;3.57;;
63807;SDS011;49961;43.970;22.868;2022-10-26T02:55:33;4.63;;;3.70;;
63807;SDS011;49961;43.970;22.868;2022-10-26T02:56:51;5.47;;;3.90;;
63807;SDS011;49961;43.970;22.868;2022-10-26T02:58:15;5.97;;;3.90;;
63807;SDS011;49961;43.970;22.868;2022-10-26T02:59:21;6.03;;;4.00;;
63807;SDS011;49961;43.970;22.868;2022-10-26T03:00:25;6.70;;;4.10;;
63807;SDS011;49961;43.970;22.868;2022-10-26T03:01:26;4.93;;;3.70;;
63807;SDS011;49961;43.970;22.868;2022-10-26T03:02:28;6.90;;;4.30;;
63807;SDS011;49961;43.970;22.868;2022-10-26T03:03:29;5.30;;;3.73;;
63807;SDS011;49961;43.970;22.868;2022-10-26T03:04:30;6.20;;;3.80;;
63807;SDS011;49961;43.970;22.868;2022-10-26T03:05:32;6.97;;;4.13;;
63807;SDS011;49961;43.970;22.868;2022-10-26T03:06:33;5.93;;;4.10;;
63807;SDS011;49961;43.970;22.868;2022-10-26T03:07:33;5.80;;;3.97;;
63807;SDS011;49961;43.970;22.868;2022-10-26T03:08:33;6.50;;;4.50;;
63807;SDS011;49961;43.970;22.868;2022-10-26T03:09:34;5.03;;;4.33;;
63807;SDS011;49961;43.970;22.868;2022-10-26T03:10:36;5.10;;;4.10;;
63807;SDS011;49961;43.970;22.868;2022-10-26T03:11:40;6.60;;;4.07;;
63807;SDS011;49961;43.970;22.868;2022-10-26T03:12:40;7.40;;;4.10;;
63807;SDS011;49961;43.970;22.868;2022-10-26T03:13:41;6.80;;;4.50;;
63807;SDS011;49961;43.970;22.868;2022-10-26T03:14:41;7.43;;;4.53;;
63807;SDS011;49961;43.970;22.868;2022-10-26T03:15:42;6.30;;;4.20;;
63807;SDS011;49961;43.970;22.868;2022-10-26T03:16:42;5.87;;;3.90;;
63807;SDS011;49961;43.970;22.868;2022-10-26T03:17:42;5.70;;;4.10;;
63807;SDS011;49961;43.970;22.868;2022-10-26T03:18:43;6.73;;;4.27;;
63807;SDS011;49961;43.970;22.868;2022-10-26T03:19:43;5.80;;;4.07;;
63807;SDS011;49961;43.970;22.868;2022-10-26T03:20:44;7.47;;;4.10;;
63807;SDS011;49961;43.970;22.868;2022-10-26T03:21:44;5.40;;;4.20;;
63807;SDS011;49961;43.970;22.868;2022-10-26T03:22:48;5.33;;;4.50;;
63807;SDS011;49961;43.970;22.868;2022-10-26T03:23:48;4.90;;;4.20;;
63807;SDS011;49961;43.970;22.868;2022-10-26T03:24:49;6.47;;;4.13;;
63807;SDS011;49961;43.970;22.868;2022-10-26T03:25:50;6.30;;;4.37;;
63807;SDS011;49961;43.970;22.868;2022-10-26T03:26:50;6.20;;;4.60;;
63807;SDS011;49961;43.970;22.868;2022-10-26T03:27:57;5.23;;;4.47;;
63807;SDS011;49961;43.970;22.868;2022-10-26T03:28:59;6.27;;;4.67;;
63807;SDS011;49961;43.970;22.868;2022-10-26T03:29:59;5.63;;;4.90;;
63807;SDS011;49961;43.970;22.868;2022-10-26T03:31:00;6.80;;;4.73;;
63807;SDS011;49961;43.970;22.868;2022-10-26T03:32:00;8.47;;;4.57;;
63807;SDS011;49961;43.970;22.868;2022-10-26T03:33:00;5.00;;;4.27;;
63807;SDS011;49961;43.970;22.868;2022-10-26T03:34:01;5.60;;;4.80;;
63807;SDS011;49961;43.970;22.868;2022-10-26T03:35:01;5.53;;;4.77;;
63807;SDS011;49961;43.970;22.868;2022-10-26T03:36:02;6.53;;;4.73;;
63807;SDS011;49961;43.970;22.868;2022-10-26T03:37:03;5.73;;;5.13;;
63807;SDS011;49961;43.970;22.868;2022-10-26T03:38:03;8.77;;;5.63;;
63807;SDS011;49961;43.970;22.868;2022-10-26T03:39:04;7.27;;;5.33;;
63807;SDS011;49961;43.970;22.868;2022-10-26T03:40:05;5.60;;;5.07;;
63807;SDS011;49961;43.970;22.868;2022-10-26T03:41:05;6.27;;;5.40;;
63807;SDS011;49961;43.970;22.868;2022-10-26T03:42:06;6.00;;;5.20;;
63807;SDS011;49961;43.970;22.868;2022-10-26T03:43:06;9.10;;;5.50;;
63807;SDS011;49961;43.970;22.868;2022-10-26T03:44:07;6.30;;;5.10;;
63807;SDS011;49961;43.970;22.868;2022-10-26T03:45:07;5.83;;;5.23;;
63807;SDS011;49961;43.970;22.868;2022-10-26T03:46:09;6.33;;;5.07;;
63807;SDS011;49961;43.970;22.868;2022-10-26T03:47:09;6.33;;;5.20;;
63807;SDS011;49961;43.970;22.868;2022-10-26T03:48:09;7.90;;;5.17;;
63807;SDS011;49961;43.970;22.868;2022-10-26T03:49:10;7.20;;;5.27;;
63807;SDS011;49961;43.970;22.868;2022-10-26T03:50:11;8.97;;;5.30;;
63807;SDS011;49961;43.970;22.868;2022-10-26T03:51:13;6.10;;;5.00;;
63807;SDS011;49961;43.970;22.868;2022-10-26T03:52:14;6.50;;;5.10;;
63807;SDS011;49961;43.970;22.868;2022-10-26T03:53:14;5.93;;;4.30;;
63807;SDS011;49961;43.970;22.868;2022-10-26T03:54:14;6.10;;;4.60;;
63807;SDS011;49961;43.970;22.868;2022-10-26T03:55:15;6.03;;;4.40;;
63807;SDS011;49961;43.970;22.868;2022-10-26T03:56:15;6.80;;;3.83;;
63807;SDS011;49961;43.970;22.868;2022-10-26T03:57:16;6.47;;;3.90;;
63807;SDS011;49961;43.970;22.868;2022-10-26T03:58:17;4.77;;;3.67;;
63807;SDS011;49961;43.970;22.868;2022-10-26T03:59:17;4.87;;;4.10;;
63807;SDS011;49961;43.970;22.868;2022-10-26T04:00:18;8.67;;;4.57;;
63807;SDS011;49961;43.970;22.868;2022-10-26T04:01:18;5.13;;;3.80;;
63807;SDS011;49961;43.970;22.868;2022-10-26T04:02:19;6.80;;;3.90;;
63807;SDS011;49961;43.970;22.868;2022-10-26T04:03:19;7.57;;;4.20;;
63807;SDS011;49961;43.970;22.868;2022-10-26T04:04:19;5.10;;;3.77;;
63807;SDS011;49961;43.970;22.868;2022-10-26T04:05:20;5.27;;;3.80;;
63807;SDS011;49961;43.970;22.868;2022-10-26T04:06:21;5.30;;;3.70;;
63807;SDS011;49961;43.970;22.868;2022-10-26T04:07:21;4.93;;;3.80;;
63807;SDS011;49961;43.970;22.868;2022-10-26T04:08:21;5.70;;;3.47;;
63807;SDS011;49961;43.970;22.868;2022-10-26T04:09:22;5.43;;;3.57;;
63807;SDS011;49961;43.970;22.868;2022-10-26T04:10:23;4.77;;;3.40;;
63807;SDS011;49961;43.970;22.868;2022-10-26T04:11:25;7.40;;;3.50;;
63807;SDS011;49961;43.970;22.868;2022-10-26T04:12:25;5.67;;;3.20;;
63807;SDS011;49961;43.970;22.868;2022-10-26T04:13:25;4.93;;;3.20;;
63807;SDS011;49961;43.970;22.868;2022-10-26T04:14:26;4.60;;;3.13;;
63807;SDS011;49961;43.970;22.868;2022-10-26T04:15:27;5.27;;;3.40;;
63807;SDS011;49961;43.970;22.868;2022-10-26T04:16:28;5.50;;;3.50;;
63807;SDS011;49961;43.970;22.868;2022-10-26T04:17:28;4.30;;;3.10;;
63807;SDS011;49961;43.970;22.868;2022-10-26T04:18:28;6.00;;;3.70;;
63807;SDS011;49961;43.970;22.868;2022-10-26T04:19:29;5.40;;;3.77;;
63807;SDS011;49961;43.970;22.868;2022-10-26T04:20:29;4.50;;;3.53;;
63807;SDS011;49961;43.970;22.868;2022-10-26T04:21:32;6.50;;;3.50;;
63807;SDS011;49961;43.970;22.868;2022-10-26T04:22:32;6.87;;;3.80;;
63807;SDS011;49961;43.970;22.868;2022-10-26T04:23:33;5.23;;;3.87;;
63807;SDS011;49961;43.970;22.868;2022-10-26T04:24:33;5.37;;;3.73;;
63807;SDS011;49961;43.970;22.868;2022-10-26T04:25:34;5.37;;;3.70;;
63807;SDS011;49961;43.970;22.868;2022-10-26T04:26:34;5.57;;;3.97;;
63807;SDS011;49961;43.970;22.868;2022-10-26T04:27:35;8.10;;;3.80;;
63807;SDS011;49961;43.970;22.868;2022-10-26T04:28:35;6.43;;;4.13;;
63807;SDS011;49961;43.970;22.868;2022-10-26T04:29:35;5.80;;;4.00;;
63807;SDS011;49961;43.970;22.868;2022-10-26T04:30:36;5.50;;;3.80;;
63807;SDS011;49961;43.970;22.868;2022-10-26T04:31:37;6.20;;;4.23;;
63807;SDS011;49961;43.970;22.868;2022-10-26T04:32:38;5.83;;;4.37;;
63807;SDS011;49961;43.970;22.868;2022-10-26T04:33:38;5.37;;;3.80;;
63807;SDS011;49961;43.970;22.868;2022-10-26T04:34:38;4.83;;;3.63;;
63807;SDS011;49961;43.970;22.868;2022-10-26T04:35:39;7.17;;;3.90;;
63807;SDS011;49961;43.970;22.868;2022-10-26T04:36:40;5.20;;;4.13;;
63807;SDS011;49961;43.970;22.868;2022-10-26T04:37:40;5.20;;;3.87;;
63807;SDS011;49961;43.970;22.868;2022-10-26T04:38:41;5.60;;;4.00;;
63807;SDS011;49961;43.970;22.868;2022-10-26T04:39:41;4.33;;;3.90;;
63807;SDS011;49961;43.970;22.868;2022-10-26T04:40:41;5.83;;;3.97;;
63807;SDS011;49961;43.970;22.868;2022-10-26T04:41:42;5.33;;;3.80;;
63807;SDS011;49961;43.970;22.868;2022-10-26T04:42:43;5.27;;;4.00;;
63807;SDS011;49961;43.970;22.868;2022-10-26T04:43:44;6.20;;;3.90;;
63807;SDS011;49961;43.970;22.868;2022-10-26T04:44:45;5.23;;;4.17;;
63807;SDS011;49961;43.970;22.868;2022-10-26T04:45:45;5.50;;;4.30;;
63807;SDS011;49961;43.970;22.868;2022-10-26T04:46:46;6.60;;;4.00;;
63807;SDS011;49961;43.970;22.868;2022-10-26T04:47:46;6.87;;;4.50;;
63807;SDS011;49961;43.970;22.868;2022-10-26T04:48:47;6.63;;;4.23;;
63807;SDS011;49961;43.970;22.868;2022-10-26T04:49:47;6.43;;;4.17;;
63807;SDS011;49961;43.970;22.868;2022-10-26T04:50:48;5.60;;;4.00;;
63807;SDS011;49961;43.970;22.868;2022-10-26T04:51:48;5.80;;;4.47;;
63807;SDS011;49961;43.970;22.868;2022-10-26T04:52:49;9.33;;;4.57;;
63807;SDS011;49961;43.970;22.868;2022-10-26T04:53:52;7.07;;;4.73;;
63807;SDS011;49961;43.970;22.868;2022-10-26T04:54:53;5.43;;;4.50;;
63807;SDS011;49961;43.970;22.868;2022-10-26T04:55:56;7.80;;;5.13;;
63807;SDS011;49961;43.970;22.868;2022-10-26T04:56:58;7.50;;;5.50;;
63807;SDS011;49961;43.970;22.868;2022-10-26T04:57:58;6.70;;;5.43;;
63807;SDS011;49961;43.970;22.868;2022-10-26T04:58:58;8.20;;;5.70;;
63807;SDS011;49961;43.970;22.868;2022-10-26T04:59:59;7.93;;;5.87;;
63807;SDS011;49961;43.970;22.868;2022-10-26T05:01:00;8.70;;;5.90;;
63807;SDS011;49961;43.970;22.868;2022-10-26T05:02:01;7.00;;;5.70;;
63807;SDS011;49961;43.970;22.868;2022-10-26T05:03:03;8.57;;;6.13;;
63807;SDS011;49961;43.970;22.868;2022-10-26T05:04:05;7.83;;;5.43;;
63807;SDS011;49961;43.970;22.868;2022-10-26T05:05:05;11.83;;;6.20;;
63807;SDS011;49961;43.970;22.868;2022-10-26T05:06:06;7.07;;;5.83;;
63807;SDS011;49961;43.970;22.868;2022-10-26T05:07:07;7.77;;;5.80;;
63807;SDS011;49961;43.970;22.868;2022-10-26T05:08:07;7.20;;;6.00;;
63807;SDS011;49961;43.970;22.868;2022-10-26T05:09:07;6.37;;;5.63;;
63807;SDS011;49961;43.970;22.868;2022-10-26T05:10:08;8.37;;;5.77;;
63807;SDS011;49961;43.970;22.868;2022-10-26T05:11:09;8.53;;;6.00;;
63807;SDS011;49961;43.970;22.868;2022-10-26T05:12:10;7.63;;;6.27;;
63807;SDS011;49961;43.970;22.868;2022-10-26T05:13:10;7.90;;;6.60;;
63807;SDS011;49961;43.970;22.868;2022-10-26T05:14:11;10.57;;;6.30;;
63807;SDS011;49961;43.970;22.868;2022-10-26T05:15:12;8.73;;;6.60;;
63807;SDS011;49961;43.970;22.868;2022-10-26T05:16:14;6.93;;;5.87;;
63807;SDS011;49961;43.970;22.868;2022-10-26T05:17:15;9.30;;;6.53;;
63807;SDS011;49961;43.970;22.868;2022-10-26T05:18:15;9.53;;;6.00;;
63807;SDS011;49961;43.970;22.868;2022-10-26T05:19:16;7.97;;;6.27;;
63807;SDS011;49961;43.970;22.868;2022-10-26T05:20:16;9.50;;;6.00;;
63807;SDS011;49961;43.970;22.868;2022-10-26T05:21:17;7.70;;;6.03;;
63807;SDS011;49961;43.970;22.868;2022-10-26T05:22:20;8.10;;;5.80;;
63807;SDS011;49961;43.970;22.868;2022-10-26T05:23:21;7.73;;;6.20;;
63807;SDS011;49961;43.970;22.868;2022-10-26T05:24:22;8.93;;;6.40;;
63807;SDS011;49961;43.970;22.868;2022-10-26T05:25:23;8.23;;;6.70;;
63807;SDS011;49961;43.970;22.868;2022-10-26T05:26:24;8.73;;;6.60;;
63807;SDS011;49961;43.970;22.868;2022-10-26T05:27:25;24.30;;;7.27;;
63807;SDS011;49961;43.970;22.868;2022-10-26T05:28:25;25.60;;;7.20;;
63807;SDS011;49961;43.970;22.868;2022-10-26T05:29:26;9.27;;;6.30;;
63807;SDS011;49961;43.970;22.868;2022-10-26T05:30:27;9.93;;;6.23;;
63807;SDS011;49961;43.970;22.868;2022-10-26T05:31:28;8.33;;;6.70;;
63807;SDS011;49961;43.970;22.868;2022-10-26T05:32:28;8.27;;;6.67;;
63807;SDS011;49961;43.970;22.868;2022-10-26T05:33:28;8.20;;;6.30;;
63807;SDS011;49961;43.970;22.868;2022-10-26T05:34:29;8.27;;;6.07;;
63807;SDS011;49961;43.970;22.868;2022-10-26T05:35:30;7.10;;;6.37;;
63807;SDS011;49961;43.970;22.868;2022-10-26T05:36:31;7.90;;;6.27;;
63807;SDS011;49961;43.970;22.868;2022-10-26T05:37:31;8.63;;;6.50;;
63807;SDS011;49961;43.970;22.868;2022-10-26T05:38:32;8.73;;;6.17;;
63807;SDS011;49961;43.970;22.868;2022-10-26T05:39:32;9.27;;;6.90;;
63807;SDS011;49961;43.970;22.868;2022-10-26T05:40:33;13.93;;;6.43;;
63807;SDS011;49961;43.970;22.868;2022-10-26T05:41:33;11.17;;;7.03;;
63807;SDS011;49961;43.970;22.868;2022-10-26T05:42:33;8.60;;;6.50;;
63807;SDS011;49961;43.970;22.868;2022-10-26T05:43:34;10.30;;;6.83;;
63807;SDS011;49961;43.970;22.868;2022-10-26T05:44:34;10.40;;;7.20;;
63807;SDS011;49961;43.970;22.868;2022-10-26T05:45:35;9.23;;;7.00;;
63807;SDS011;49961;43.970;22.868;2022-10-26T05:46:35;9.70;;;7.30;;
63807;SDS011;49961;43.970;22.868;2022-10-26T05:47:39;11.90;;;7.13;;
63807;SDS011;49961;43.970;22.868;2022-10-26T05:48:40;13.87;;;7.40;;
63807;SDS011;49961;43.970;22.868;2022-10-26T05:49:41;12.07;;;7.53;;
63807;SDS011;49961;43.970;22.868;2022-10-26T05:50:41;12.73;;;7.40;;
63807;SDS011;49961;43.970;22.868;2022-10-26T05:51:42;12.17;;;8.03;;
63807;SDS011;49961;43.970;22.868;2022-10-26T05:52:43;8.43;;;6.60;;
63807;SDS011;49961;43.970;22.868;2022-10-26T05:53:44;10.70;;;7.40;;
63807;SDS011;49961;43.970;22.868;2022-10-26T05:54:45;8.27;;;6.97;;
63807;SDS011;49961;43.970;22.868;2022-10-26T05:55:45;12.53;;;7.23;;
63807;SDS011;49961;43.970;22.868;2022-10-26T05:56:46;9.77;;;7.07;;
63807;SDS011;49961;43.970;22.868;2022-10-26T05:57:47;9.63;;;7.30;;
63807;SDS011;49961;43.970;22.868;2022-10-26T05:58:48;10.43;;;7.70;;
63807;SDS011;49961;43.970;22.868;2022-10-26T05:59:48;8.53;;;7.37;;
63807;SDS011;49961;43.970;22.868;2022-10-26T06:05:01;10.13;;;7.70;;
63807;SDS011;49961;43.970;22.868;2022-10-26T06:06:03;10.33;;;7.63;;
63807;SDS011;49961;43.970;22.868;2022-10-26T06:07:10;9.40;;;7.30;;
63807;SDS011;49961;43.970;22.868;2022-10-26T06:08:12;11.37;;;7.67;;
63807;SDS011;49961;43.970;22.868;2022-10-26T06:09:13;10.83;;;7.57;;
63807;SDS011;49961;43.970;22.868;2022-10-26T06:10:14;8.40;;;7.53;;
63807;SDS011;49961;43.970;22.868;2022-10-26T06:11:15;9.87;;;7.53;;
63807;SDS011;49961;43.970;22.868;2022-10-26T06:12:16;8.03;;;6.97;;
63807;SDS011;49961;43.970;22.868;2022-10-26T06:13:17;9.93;;;6.97;;
63807;SDS011;49961;43.970;22.868;2022-10-26T06:14:17;18.60;;;7.33;;
63807;SDS011;49961;43.970;22.868;2022-10-26T06:15:19;11.67;;;7.80;;
63807;SDS011;49961;43.970;22.868;2022-10-26T06:16:24;10.23;;;7.73;;
63807;SDS011;49961;43.970;22.868;2022-10-26T06:18:53;8.37;;;7.13;;
63807;SDS011;49961;43.970;22.868;2022-10-26T06:21:29;9.57;;;6.93;;
63807;SDS011;49961;43.970;22.868;2022-10-26T06:28:34;7.37;;;6.37;;
63807;SDS011;49961;43.970;22.868;2022-10-26T06:31:00;8.70;;;6.70;;
63807;SDS011;49961;43.970;22.868;2022-10-26T06:32:00;10.37;;;6.63;;
63807;SDS011;49961;43.970;22.868;2022-10-26T06:33:01;7.20;;;6.20;;
63807;SDS011;49961;43.970;22.868;2022-10-26T06:34:03;7.67;;;6.63;;
63807;SDS011;49961;43.970;22.868;2022-10-26T06:35:10;7.17;;;5.73;;
63807;SDS011;49961;43.970;22.868;2022-10-26T06:37:23;7.60;;;5.90;;
63807;SDS011;49961;43.970;22.868;2022-10-26T06:38:25;8.23;;;6.00;;
63807;SDS011;49961;43.970;22.868;2022-10-26T06:39:28;6.73;;;5.47;;
63807;SDS011;49961;43.970;22.868;2022-10-26T06:40:31;7.63;;;6.10;;
63807;SDS011;49961;43.970;22.868;2022-10-26T06:41:34;7.97;;;5.80;;
63807;SDS011;49961;43.970;22.868;2022-10-26T06:42:35;5.87;;;4.80;;
63807;SDS011;49961;43.970;22.868;2022-10-26T06:43:36;8.10;;;5.73;;
63807;SDS011;49961;43.970;22.868;2022-10-26T06:44:37;8.60;;;5.80;;
63807;SDS011;49961;43.970;22.868;2022-10-26T06:45:39;7.23;;;6.07;;
63807;SDS011;49961;43.970;22.868;2022-10-26T06:46:47;6.57;;;5.47;;
63807;SDS011;49961;43.970;22.868;2022-10-26T06:47:51;8.23;;;5.27;;
63807;SDS011;49961;43.970;22.868;2022-10-26T06:53:27;8.57;;;5.50;;
63807;SDS011;49961;43.970;22.868;2022-10-26T06:55:50;7.87;;;5.87;;
63807;SDS011;49961;43.970;22.868;2022-10-26T06:56:51;8.33;;;6.20;;
63807;SDS011;49961;43.970;22.868;2022-10-26T06:57:52;7.33;;;5.57;;
63807;SDS011;49961;43.970;22.868;2022-10-26T06:58:53;7.90;;;6.03;;